St. David's Bench

*Note: All times are displayed in the local standard time of the station location.
**Rain - Equipment is designed to accurately record liquid precipitation; under conditions when precipitation is not in liquid form, the data displayed may not properly reflect rainfall values.

Date Max Temp
(°C)
Min Temp
(°C)
Avg Temp
(°C)
Rain (mm) Avg RH (%)
Sun, Dec 10, 2017 -1.4 -2.9 -2.1 0.0 74.5
Sat, Dec 09, 2017 1.0 -3.2 -0.9 0.0 65.6
Fri, Dec 08, 2017 0.1 -4.4 -1.9 0.0 64.4
Thu, Dec 07, 2017 1.6 -3.3 -0.8 0.0 63.8
Wed, Dec 06, 2017 3.8 -0.8 1.4 0.0 55.6
Tue, Dec 05, 2017 11.2 0.5 7.5 6.6 71.4
Mon, Dec 04, 2017 10.8 -3.7 6.0 0.2 72.1
DateTime Avg Temp (°C) Rain (mm) RH (%)
Mon, Dec 11, 2017 02:00 -2.6 0.0 88.8
Mon, Dec 11, 2017 01:00 -2.1 0.0 77.8
Mon, Dec 11, 2017 00:00 -2.5 0.0 77.5
Sun, Dec 10, 2017 23:00 -2.4 0.0 76.0
Sun, Dec 10, 2017 22:00 -2.3 0.0 74.5
Sun, Dec 10, 2017 21:00 -2.0 0.0 71.5
Sun, Dec 10, 2017 20:00 -2.0 0.0 69.3
Sun, Dec 10, 2017 19:00 -1.8 0.0 64.0
Sun, Dec 10, 2017 18:00 -1.7 0.0 62.3
Sun, Dec 10, 2017 17:00 -1.8 0.0 68.0
Sun, Dec 10, 2017 16:00 -1.6 0.0 70.0
Sun, Dec 10, 2017 15:00 -1.5 0.0 71.3
Sun, Dec 10, 2017 14:00 -1.5 0.0 69.5
Sun, Dec 10, 2017 13:00 -1.5 0.0 68.3
Sun, Dec 10, 2017 12:00 -1.6 0.0 65.3
Sun, Dec 10, 2017 11:00 -2.1 0.0 64.8
Sun, Dec 10, 2017 10:00 -2.5 0.0 67.0
Sun, Dec 10, 2017 09:00 -2.8 0.0 67.5
Sun, Dec 10, 2017 08:00 -2.8 0.0 71.5
Sun, Dec 10, 2017 07:00 -2.6 0.0 79.3
Sun, Dec 10, 2017 06:00 -2.3 0.0 83.5
Sun, Dec 10, 2017 05:00 -2.3 0.0 90.0
Sun, Dec 10, 2017 04:00 -2.4 0.0 90.0
Sun, Dec 10, 2017 03:00 -2.4 0.0 89.3
Sun, Dec 10, 2017 02:00 -2.4 0.0 88.0
Sun, Dec 10, 2017 01:00 -2.4 0.0 89.0
Sun, Dec 10, 2017 00:00 -3.0 0.0 91.0
Sat, Dec 09, 2017 23:00 -3.0 0.0 88.8
Sat, Dec 09, 2017 22:00 -2.3 0.0 83.0
Sat, Dec 09, 2017 21:00 -1.6 0.0 74.5
Sat, Dec 09, 2017 20:00 -0.7 0.0 66.0
Sat, Dec 09, 2017 19:00 -1.0 0.0 64.8
Sat, Dec 09, 2017 18:00 -1.2 0.0 65.8
Sat, Dec 09, 2017 17:00 -0.3 0.0 57.0
Sat, Dec 09, 2017 16:00 0.5 0.0 53.3
Sat, Dec 09, 2017 15:00 0.7 0.0 51.5
Sat, Dec 09, 2017 14:00 0.8 0.0 50.5
Sat, Dec 09, 2017 13:00 0.6 0.0 54.5
Sat, Dec 09, 2017 12:00 0.5 0.0 54.0
Sat, Dec 09, 2017 11:00 0.0 0.0 59.8
Sat, Dec 09, 2017 10:00 -1.0 0.0 64.3
Sat, Dec 09, 2017 09:00 -2.5 0.0 70.3
Sat, Dec 09, 2017 08:00 -2.2 0.0 73.5
Sat, Dec 09, 2017 07:00 -1.1 0.0 76.0
Sat, Dec 09, 2017 06:00 -0.9 0.0 74.5
Sat, Dec 09, 2017 05:00 -0.9 0.0 67.8
Sat, Dec 09, 2017 04:00 -1.1 0.0 60.8
Sat, Dec 09, 2017 03:00 -1.1 0.0 59.0


asterix Register now to access more data! asterix